createdAt,value
2018-04-07T00:00:09.437Z,3.12
2018-04-07T00:02:37.105Z,3.20
2018-04-07T00:05:04.744Z,3.12
2018-04-07T00:07:32.348Z,2.92
2018-04-07T00:10:00.096Z,2.50
2018-04-07T00:12:27.714Z,2.97
2018-04-07T00:14:55.345Z,3.17
2018-04-07T00:17:23.761Z,2.92
2018-04-07T00:19:51.433Z,2.37
2018-04-07T00:22:19.051Z,2.80
2018-04-07T00:24:47.483Z,2.75
2018-04-07T00:27:15.099Z,2.75
2018-04-07T00:29:42.846Z,2.53
2018-04-07T00:32:11.262Z,3.62
2018-04-07T00:34:38.935Z,3.28
2018-04-07T00:37:06.631Z,2.65
2018-04-07T00:39:34.282Z,3.17
2018-04-07T00:42:01.889Z,2.90
2018-04-07T00:44:29.538Z,2.45
2018-04-07T00:46:57.196Z,2.87
2018-04-07T00:49:24.841Z,3.33
2018-04-07T00:51:52.472Z,3.78
2018-04-07T00:54:20.206Z,4.70
2018-04-07T00:56:47.972Z,4.60
2018-04-07T00:59:15.768Z,3.33
2018-04-07T01:01:43.444Z,3.45
2018-04-07T01:04:11.101Z,2.83
2018-04-07T01:06:38.758Z,2.95
2018-04-07T01:09:06.378Z,3.05
2018-04-07T01:11:35.555Z,3.50
2018-04-07T01:14:03.203Z,3.17
2018-04-07T01:16:31.603Z,2.75
2018-04-07T01:19:00.482Z,3.08
2018-04-07T01:21:28.144Z,2.90
2018-04-07T01:23:55.781Z,2.30
2018-04-07T01:26:23.418Z,4.12
2018-04-07T01:28:51.020Z,3.00
2018-04-07T01:31:18.683Z,3.05
2018-04-07T01:33:46.328Z,3.03
2018-04-07T01:36:13.986Z,3.28
2018-04-07T01:38:41.638Z,3.22
2018-04-07T01:41:09.421Z,2.72
2018-04-07T01:43:37.105Z,3.62
2018-04-07T01:46:04.761Z,3.10
2018-04-07T01:48:32.452Z,3.30
2018-04-07T01:51:00.905Z,2.87
2018-04-07T01:53:29.356Z,3.05
2018-04-07T01:55:57.012Z,2.85
2018-04-07T01:58:24.648Z,2.75
2018-04-07T02:00:53.069Z,3.03
2018-04-07T02:03:20.737Z,2.92
2018-04-07T02:05:48.480Z,2.58
2018-04-07T02:08:16.843Z,2.40
2018-04-07T02:10:45.214Z,2.80
2018-04-07T02:13:13.713Z,2.28
2018-04-07T02:15:41.384Z,2.90
2018-04-07T02:18:09.013Z,2.50
2018-04-07T02:20:37.454Z,3.22
2018-04-07T02:23:05.061Z,2.80
2018-04-07T02:25:33.465Z,2.85
2018-04-07T02:28:01.115Z,2.85
2018-04-07T02:30:28.893Z,2.67
2018-04-07T02:32:56.769Z,2.70
2018-04-07T02:35:25.119Z,3.37
2018-04-07T02:37:53.552Z,3.33
2018-04-07T02:40:21.178Z,2.55
2018-04-07T02:42:48.900Z,2.58
2018-04-07T02:45:16.586Z,2.60
2018-04-07T02:47:44.259Z,3.03
2018-04-07T02:50:11.940Z,3.33
2018-04-07T02:52:39.601Z,2.58
2018-04-07T02:55:07.294Z,2.45
2018-04-07T02:57:34.900Z,2.30
2018-04-07T03:00:03.337Z,3.75
2018-04-07T03:02:31.013Z,2.75
2018-04-07T03:04:58.674Z,3.50
2018-04-07T03:07:26.363Z,2.87
2018-04-07T03:09:54.744Z,2.92
2018-04-07T03:12:23.190Z,2.70
2018-04-07T03:14:50.890Z,2.97
2018-04-07T03:17:19.297Z,2.60
2018-04-07T03:19:46.945Z,3.15
2018-04-07T03:22:15.331Z,2.83
2018-04-07T03:24:42.963Z,2.60
2018-04-07T03:27:11.387Z,3.53
2018-04-07T03:29:38.992Z,3.40
2018-04-07T03:32:06.677Z,3.20
2018-04-07T03:34:35.090Z,3.28
2018-04-07T03:37:02.755Z,2.30
2018-04-07T03:39:30.372Z,3.97
2018-04-07T03:41:58.738Z,2.42
2018-04-07T03:44:26.396Z,2.65
2018-04-07T03:46:54.072Z,3.08
2018-04-07T03:49:22.499Z,2.90
2018-04-07T03:51:50.160Z,3.10
2018-04-07T03:54:17.838Z,3.58
2018-04-07T03:56:45.480Z,3.12
2018-04-07T03:59:13.095Z,3.00
2018-04-07T04:01:40.763Z,2.87
2018-04-07T04:04:08.518Z,2.53
2018-04-07T04:06:36.182Z,3.25
2018-04-07T04:09:03.966Z,2.70
2018-04-07T04:11:32.405Z,3.25
2018-04-07T04:14:00.115Z,2.97
2018-04-07T04:16:28.518Z,3.30
2018-04-07T04:18:56.204Z,3.55
2018-04-07T04:21:24.667Z,3.55
2018-04-07T04:23:52.316Z,3.67
2018-04-07T04:26:19.980Z,3.58
2018-04-07T04:28:48.093Z,3.15
2018-04-07T04:31:15.815Z,3.12
2018-04-07T04:33:43.478Z,3.30
2018-04-07T04:36:11.138Z,3.40
2018-04-07T04:38:38.827Z,3.15
2018-04-07T04:41:06.587Z,3.30
2018-04-07T04:43:34.229Z,3.53
2018-04-07T04:46:02.847Z,3.70
2018-04-07T04:48:30.499Z,3.20
2018-04-07T04:50:58.114Z,2.87
2018-04-07T04:53:26.594Z,3.17
2018-04-07T04:55:54.326Z,3.65
2018-04-07T04:58:21.970Z,3.80
2018-04-07T05:00:49.678Z,2.97
2018-04-07T05:03:17.332Z,3.10
2018-04-07T05:05:45.732Z,3.20
2018-04-07T05:08:13.379Z,3.30
2018-04-07T05:10:41.036Z,3.80
2018-04-07T05:13:08.702Z,2.92
2018-04-07T05:15:36.335Z,3.47
2018-04-07T05:18:04.070Z,3.87
2018-04-07T05:20:31.688Z,3.70
2018-04-07T05:22:59.366Z,4.25
2018-04-07T05:25:27.050Z,3.45
2018-04-07T05:27:54.634Z,3.37
2018-04-07T05:30:22.214Z,2.90
2018-04-07T05:32:49.853Z,16.55
2018-04-07T05:35:17.521Z,3.53
2018-04-07T05:37:45.168Z,3.85
2018-04-07T05:40:12.949Z,3.10
2018-04-07T05:42:40.534Z,3.22
2018-04-07T05:45:08.178Z,3.87
2018-04-07T05:47:36.668Z,4.00
2018-04-07T05:50:05.865Z,3.40
2018-04-07T05:52:33.500Z,3.62
2018-04-07T05:55:01.150Z,3.65
2018-04-07T05:57:28.811Z,3.30
2018-04-07T05:59:57.217Z,4.05
2018-04-07T06:02:24.878Z,3.70
2018-04-07T06:04:52.512Z,3.30
2018-04-07T06:07:20.177Z,3.92
2018-04-07T06:09:47.803Z,4.18
2018-04-07T06:12:16.161Z,3.62
2018-04-07T06:14:44.319Z,3.30
2018-04-07T06:17:11.985Z,3.30
2018-04-07T06:19:39.682Z,4.53
2018-04-07T06:22:08.120Z,3.72
2018-04-07T06:24:35.840Z,3.55
2018-04-07T06:27:03.417Z,3.80
2018-04-07T06:29:31.044Z,4.10
2018-04-07T06:31:58.666Z,4.20
2018-04-07T06:34:26.265Z,4.57
2018-04-07T06:36:53.862Z,4.95
2018-04-07T06:39:21.544Z,4.07
2018-04-07T06:41:49.169Z,3.97
2018-04-07T06:44:17.550Z,5.00
2018-04-07T06:46:45.921Z,4.70
2018-04-07T06:49:14.285Z,4.40
2018-04-07T06:51:42.650Z,5.10
2018-04-07T06:54:10.249Z,4.78
2018-04-07T06:56:37.909Z,4.60
2018-04-07T06:59:05.633Z,5.37
2018-04-07T07:01:33.261Z,5.15
2018-04-07T07:04:00.974Z,4.87
2018-04-07T07:06:29.347Z,4.85
2018-04-07T07:08:57.110Z,5.37
2018-04-07T07:11:25.596Z,4.62
2018-04-07T07:13:53.218Z,5.00
2018-04-07T07:16:20.920Z,4.90
2018-04-07T07:18:49.443Z,6.05
2018-04-07T07:21:17.076Z,5.30
2018-04-07T07:23:45.431Z,5.25
2018-04-07T07:26:13.299Z,4.80
2018-04-07T07:28:40.987Z,4.95
2018-04-07T07:31:09.606Z,5.32
2018-04-07T07:33:37.289Z,5.25
2018-04-07T07:36:04.959Z,6.60
2018-04-07T07:38:34.343Z,6.05
2018-04-07T07:41:02.082Z,4.65
2018-04-07T07:43:29.721Z,5.85
2018-04-07T07:45:58.176Z,5.25
2018-04-07T07:48:25.829Z,5.10
2018-04-07T07:50:53.551Z,5.22
2018-04-07T07:53:21.329Z,5.40
2018-04-07T07:55:48.933Z,5.20
2018-04-07T07:58:16.629Z,5.75
2018-04-07T08:00:44.226Z,5.87
2018-04-07T08:03:13.115Z,6.62
2018-04-07T08:05:41.646Z,6.18
2018-04-07T08:08:09.499Z,5.85
2018-04-07T08:10:37.136Z,5.95
2018-04-07T08:13:04.789Z,6.07
2018-04-07T08:15:32.599Z,6.20
2018-04-07T08:18:00.368Z,6.28
2018-04-07T08:20:27.996Z,6.05
2018-04-07T08:22:56.436Z,6.97
2018-04-07T08:25:24.841Z,6.35
2018-04-07T08:27:52.494Z,6.45
2018-04-07T08:30:20.090Z,6.50
2018-04-07T08:32:47.911Z,7.35
2018-04-07T08:35:16.401Z,6.12
2018-04-07T08:37:44.180Z,6.15
2018-04-07T08:40:12.759Z,6.72
2018-04-07T08:42:40.398Z,7.68
2018-04-07T08:45:08.038Z,5.18
2018-04-07T08:47:36.438Z,6.78
2018-04-07T08:50:04.079Z,6.25
2018-04-07T08:52:32.541Z,6.37
2018-04-07T08:55:00.902Z,7.03
2018-04-07T08:57:29.502Z,6.47
2018-04-07T08:59:57.208Z,6.70
2018-04-07T09:02:25.706Z,8.15
2018-04-07T09:04:53.347Z,6.95
2018-04-07T09:07:20.949Z,6.93
2018-04-07T09:09:48.592Z,7.40
2018-04-07T09:12:16.269Z,7.70
2018-04-07T09:14:43.881Z,7.00
2018-04-07T09:17:11.463Z,8.25
2018-04-07T09:19:39.091Z,7.80
2018-04-07T09:22:07.529Z,6.93
2018-04-07T09:24:35.168Z,8.10
2018-04-07T09:27:02.778Z,7.67
2018-04-07T09:29:30.399Z,8.70
2018-04-07T09:31:59.555Z,7.83
2018-04-07T09:34:27.997Z,7.60
2018-04-07T09:36:55.633Z,7.80
2018-04-07T09:39:23.223Z,15.57
2018-04-07T09:41:50.829Z,8.60
2018-04-07T09:44:18.442Z,8.07
2018-04-07T09:46:46.839Z,7.07
2018-04-07T09:49:14.482Z,7.20
2018-04-07T09:51:42.181Z,7.60
2018-04-07T09:54:09.827Z,7.67
2018-04-07T09:56:37.471Z,8.00
2018-04-07T09:59:05.172Z,8.40
2018-04-07T10:01:36.182Z,7.20
2018-04-07T10:04:04.678Z,8.03
2018-04-07T10:06:34.036Z,7.70
2018-04-07T10:09:01.653Z,7.70
2018-04-07T10:11:30.075Z,7.20
2018-04-07T10:13:59.347Z,7.53
2018-04-07T10:16:26.965Z,24.87
2018-04-07T10:18:54.592Z,6.70
2018-04-07T10:21:22.272Z,7.90
2018-04-07T10:23:49.881Z,8.53
2018-04-07T10:26:18.540Z,7.87
2018-04-07T10:28:46.357Z,7.47
2018-04-07T10:31:13.962Z,7.17
2018-04-07T10:33:42.319Z,7.07
2018-04-07T10:36:10.015Z,7.00
2018-04-07T10:38:37.786Z,8.10
2018-04-07T10:41:07.338Z,7.33
2018-04-07T10:43:35.072Z,7.93
2018-04-07T10:46:02.684Z,7.87
2018-04-07T10:48:32.154Z,8.40
2018-04-07T10:51:00.788Z,7.17
2018-04-07T10:53:28.454Z,8.63
2018-04-07T10:55:56.122Z,8.57
2018-04-07T10:58:23.734Z,7.80
2018-04-07T11:00:51.401Z,7.60
2018-04-07T11:03:19.701Z,7.00
2018-04-07T11:05:47.278Z,7.70
2018-04-07T11:08:15.106Z,7.70
2018-04-07T11:10:43.489Z,7.37
2018-04-07T11:13:11.148Z,7.70
2018-04-07T11:15:38.983Z,7.17
2018-04-07T11:18:07.379Z,8.00
2018-04-07T11:20:35.080Z,7.00
2018-04-07T11:23:02.721Z,8.50
2018-04-07T11:25:30.367Z,7.63
2018-04-07T11:27:58.018Z,6.93
2018-04-07T11:30:25.677Z,7.57
2018-04-07T11:32:54.205Z,7.77
2018-04-07T11:35:21.836Z,7.00
2018-04-07T11:37:50.206Z,7.13
2018-04-07T11:40:17.855Z,7.30
2018-04-07T11:42:46.244Z,7.13
2018-04-07T11:45:13.913Z,7.40
2018-04-07T11:47:41.553Z,7.40
2018-04-07T11:50:10.012Z,6.57
2018-04-07T11:52:37.683Z,6.93
2018-04-07T11:55:05.313Z,7.17
2018-04-07T11:57:32.994Z,8.40
2018-04-07T12:00:00.597Z,7.50
2018-04-07T12:02:28.311Z,6.57
2018-04-07T12:04:56.357Z,7.67
2018-04-07T12:07:23.995Z,7.93
2018-04-07T12:09:51.750Z,7.30
2018-04-07T12:12:19.351Z,6.93
2018-04-07T12:14:47.786Z,7.17
2018-04-07T12:17:16.154Z,6.87
2018-04-07T12:19:43.761Z,7.90
2018-04-07T12:22:11.510Z,7.60
2018-04-07T12:24:39.216Z,6.70
2018-04-07T12:27:07.374Z,6.93
2018-04-07T12:29:35.957Z,7.67
2018-04-07T12:32:03.761Z,6.70
2018-04-07T12:34:32.136Z,7.03
2018-04-07T12:36:59.894Z,6.60
2018-04-07T12:39:27.594Z,6.57
2018-04-07T12:41:55.217Z,4.93
2018-04-07T12:44:22.909Z,4.90
2018-04-07T12:46:52.211Z,5.70
2018-04-07T12:49:20.684Z,6.97
2018-04-07T12:51:48.313Z,7.20
2018-04-07T12:54:15.905Z,4.90
2018-04-07T12:56:43.559Z,4.83
2018-04-07T12:59:11.962Z,5.80
2018-04-07T13:01:39.643Z,5.20
2018-04-07T13:04:07.299Z,4.90
2018-04-07T13:06:35.017Z,4.20
2018-04-07T13:09:02.708Z,4.90
2018-04-07T13:11:31.117Z,4.83
2018-04-07T13:13:58.715Z,4.10
2018-04-07T13:16:26.372Z,2.90
2018-04-07T13:18:54.882Z,3.20
2018-04-07T13:21:23.358Z,4.00
2018-04-07T13:23:51.798Z,3.47
2018-04-07T13:26:19.485Z,3.60
2018-04-07T13:28:47.100Z,3.77
2018-04-07T13:31:14.832Z,3.30
2018-04-07T13:33:43.260Z,3.40
2018-04-07T13:36:11.450Z,4.13
2018-04-07T13:38:39.227Z,3.73
2018-04-07T13:41:07.637Z,3.00
2018-04-07T13:43:35.236Z,3.43
2018-04-07T13:46:03.767Z,3.20
2018-04-07T13:48:31.657Z,3.07
2018-04-07T13:50:59.269Z,3.23
2018-04-07T13:53:26.903Z,2.60
2018-04-07T13:55:54.537Z,2.70
2018-04-07T13:58:23.111Z,3.20
2018-04-07T14:00:50.732Z,2.43
2018-04-07T14:03:18.416Z,2.53
2018-04-07T14:05:46.804Z,2.57
2018-04-07T14:08:14.505Z,2.60
2018-04-07T14:10:42.186Z,3.33
2018-04-07T14:13:09.720Z,2.43
2018-04-07T14:15:37.414Z,2.70
2018-04-07T14:18:05.083Z,3.50
2018-04-07T14:20:32.726Z,3.07
2018-04-07T14:23:00.363Z,2.83
2018-04-07T14:25:28.787Z,2.60
2018-04-07T14:27:56.490Z,2.97
2018-04-07T14:30:24.082Z,2.90
2018-04-07T14:32:51.775Z,3.30
2018-04-07T14:35:19.533Z,3.40
2018-04-07T14:37:47.370Z,2.90
2018-04-07T14:40:15.447Z,2.60
2018-04-07T14:42:44.050Z,3.10
2018-04-07T14:45:11.728Z,3.60
2018-04-07T14:47:39.315Z,2.63
2018-04-07T14:50:07.717Z,2.60
2018-04-07T14:52:35.391Z,2.63
2018-04-07T14:55:03.117Z,3.40
2018-04-07T14:57:31.723Z,2.73
2018-04-07T15:00:00.187Z,2.60
2018-04-07T15:02:28.558Z,2.33
2018-04-07T15:04:56.977Z,2.90
2018-04-07T15:07:24.623Z,4.20
2018-04-07T15:09:53.014Z,3.00
2018-04-07T15:12:20.664Z,2.40
2018-04-07T15:14:49.178Z,3.97
2018-04-07T15:17:16.804Z,4.37
2018-04-07T15:19:44.742Z,3.23
2018-04-07T15:22:12.374Z,3.20
2018-04-07T15:24:40.042Z,3.07
2018-04-07T15:27:07.602Z,1.87
2018-04-07T15:29:35.364Z,3.40
2018-04-07T15:32:03.034Z,3.30
2018-04-07T15:34:30.851Z,2.20
2018-04-07T15:36:59.246Z,2.80
2018-04-07T15:39:26.878Z,3.03
2018-04-07T15:41:54.616Z,2.50
2018-04-07T15:44:22.270Z,2.50
2018-04-07T15:46:49.889Z,2.10
2018-04-07T15:49:17.542Z,2.17
2018-04-07T15:51:45.230Z,2.10
2018-04-07T15:54:12.832Z,2.63
2018-04-07T15:56:40.652Z,2.10
2018-04-07T15:59:08.247Z,2.03
2018-04-07T16:01:36.648Z,2.37
2018-04-07T16:04:05.007Z,2.90
2018-04-07T16:06:32.702Z,2.77
2018-04-07T16:09:01.137Z,2.20
2018-04-07T16:11:28.782Z,2.60
2018-04-07T16:13:56.576Z,2.37
2018-04-07T16:16:24.151Z,2.60
2018-04-07T16:18:53.599Z,3.47
2018-04-07T16:21:21.270Z,3.07
2018-04-07T16:23:48.855Z,2.80
2018-04-07T16:26:16.465Z,2.73
2018-04-07T16:28:44.894Z,2.60
2018-04-07T16:31:12.861Z,2.30
2018-04-07T16:33:40.495Z,3.30
2018-04-07T16:36:08.108Z,2.97
2018-04-07T16:38:35.757Z,2.80
2018-04-07T16:41:03.355Z,2.67
2018-04-07T16:43:31.036Z,3.17
2018-04-07T16:45:58.675Z,2.83
2018-04-07T16:48:27.064Z,2.23
2018-04-07T16:50:54.687Z,2.70
2018-04-07T16:53:22.311Z,3.43
2018-04-07T16:55:49.933Z,2.23
2018-04-07T16:58:17.700Z,2.20
2018-04-07T17:00:45.385Z,3.03
2018-04-07T17:03:13.085Z,2.37
2018-04-07T17:05:40.701Z,2.70
2018-04-07T17:08:09.114Z,3.20
2018-04-07T17:10:36.711Z,2.87
2018-04-07T17:13:04.551Z,2.57
2018-04-07T17:15:32.221Z,3.17
2018-04-07T17:17:59.855Z,4.27
2018-04-07T17:20:27.493Z,2.90
2018-04-07T17:22:55.915Z,2.73
2018-04-07T17:25:23.485Z,3.00
2018-04-07T17:27:51.292Z,3.20
2018-04-07T17:30:20.377Z,2.83
2018-04-07T17:32:48.078Z,2.20
2018-04-07T17:35:15.836Z,2.97
2018-04-07T17:37:43.589Z,2.87
2018-04-07T17:40:12.211Z,2.43
2018-04-07T17:42:39.778Z,3.20
2018-04-07T17:45:07.491Z,3.40
2018-04-07T17:47:35.846Z,3.43
2018-04-07T17:50:03.603Z,3.67
2018-04-07T17:52:31.233Z,3.57
2018-04-07T17:54:59.083Z,3.70
2018-04-07T17:57:26.737Z,4.37
2018-04-07T17:59:54.360Z,3.60
2018-04-07T18:02:22.027Z,4.20
2018-04-07T18:04:49.685Z,4.60
2018-04-07T18:07:17.270Z,5.33
2018-04-07T18:09:44.985Z,5.73
2018-04-07T18:12:12.558Z,7.77
2018-04-07T18:14:40.224Z,9.80
2018-04-07T18:17:07.809Z,8.87
2018-04-07T18:19:36.796Z,6.77
2018-04-07T18:22:05.182Z,7.40
2018-04-07T18:24:32.822Z,5.77
2018-04-07T18:27:00.630Z,5.83
2018-04-07T18:29:28.298Z,5.10
2018-04-07T18:31:55.911Z,6.27
2018-04-07T18:34:24.588Z,8.20
2018-04-07T18:36:53.049Z,8.77
2018-04-07T18:39:20.691Z,8.17
2018-04-07T18:41:48.333Z,10.17
2018-04-07T18:44:16.785Z,11.17
2018-04-07T18:46:44.387Z,15.40
2018-04-07T18:49:12.073Z,13.83
2018-04-07T18:51:39.708Z,13.50
2018-04-07T18:54:07.313Z,15.77
2018-04-07T18:56:34.902Z,17.77
2018-04-07T18:59:02.529Z,12.37
2018-04-07T19:01:30.190Z,12.70
2018-04-07T19:03:58.830Z,15.27
2018-04-07T19:06:26.448Z,12.60
2018-04-07T19:08:54.161Z,14.10
2018-04-07T19:11:21.836Z,12.17
2018-04-07T19:13:49.450Z,22.87
2018-04-07T19:16:17.053Z,19.57
2018-04-07T19:18:44.676Z,16.03
2018-04-07T19:21:12.442Z,19.87
2018-04-07T19:23:40.033Z,15.80
2018-04-07T19:26:08.387Z,22.20
2018-04-07T19:28:36.030Z,42.63
2018-04-07T19:31:03.589Z,25.57
2018-04-07T19:33:31.247Z,50.80
2018-04-07T19:35:58.876Z,16.50
2018-04-07T19:38:26.486Z,24.73
2018-04-07T19:40:54.132Z,21.53
2018-04-07T19:43:21.732Z,19.10
2018-04-07T19:45:50.109Z,17.77
2018-04-07T19:48:17.759Z,16.20
2018-04-07T19:50:46.860Z,16.97
2018-04-07T19:53:15.282Z,16.37
2018-04-07T19:55:43.136Z,18.43
2018-04-07T19:58:10.779Z,27.43
2018-04-07T20:00:38.382Z,23.40
2018-04-07T20:03:06.015Z,30.33
2018-04-07T20:05:33.634Z,41.80
2018-04-07T20:08:01.245Z,38.80
2018-04-07T20:10:28.915Z,32.23
2018-04-07T20:12:56.534Z,17.83
2018-04-07T20:15:24.950Z,23.07
2018-04-07T20:17:52.564Z,18.07
2018-04-07T20:20:20.230Z,14.87
2018-04-07T20:22:48.623Z,19.83
2018-04-07T20:25:17.006Z,21.90
2018-04-07T20:27:44.680Z,25.10
2018-04-07T20:30:12.265Z,19.73
2018-04-07T20:32:39.877Z,14.53
2018-04-07T20:35:08.303Z,14.80
2018-04-07T20:37:35.899Z,15.03
2018-04-07T20:40:03.506Z,14.27
2018-04-07T20:42:31.249Z,18.83
2018-04-07T20:44:58.915Z,19.50
2018-04-07T20:47:26.574Z,17.93
2018-04-07T20:49:54.949Z,17.70
2018-04-07T20:52:23.330Z,18.10
2018-04-07T20:54:51.747Z,15.57
2018-04-07T20:57:19.348Z,18.63
2018-04-07T20:59:46.959Z,20.20
2018-04-07T21:02:14.554Z,19.30
2018-04-07T21:04:42.996Z,20.40
2018-04-07T21:07:11.565Z,16.07
2018-04-07T21:09:39.184Z,16.40
2018-04-07T21:12:06.791Z,15.83
2018-04-07T21:14:34.364Z,14.67
2018-04-07T21:17:02.003Z,16.00
2018-04-07T21:19:29.656Z,15.03
2018-04-07T21:21:57.335Z,14.07
2018-04-07T21:24:24.956Z,13.73
2018-04-07T21:26:52.623Z,14.20
2018-04-07T21:29:20.288Z,18.10
2018-04-07T21:31:48.739Z,20.33
2018-04-07T21:34:16.353Z,19.60
2018-04-07T21:36:44.737Z,21.47
2018-04-07T21:39:12.339Z,18.20
2018-04-07T21:41:40.086Z,18.60
2018-04-07T21:44:07.745Z,16.27
2018-04-07T21:46:35.399Z,16.30
2018-04-07T21:49:03.020Z,16.13
2018-04-07T21:51:30.647Z,16.00
2018-04-07T21:53:58.278Z,14.50
2018-04-07T21:56:25.887Z,11.63
2018-04-07T21:58:54.372Z,12.43
2018-04-07T22:01:21.976Z,14.73
2018-04-07T22:03:49.566Z,15.60
2018-04-07T22:06:17.285Z,18.15
2018-04-07T22:08:44.998Z,14.73
2018-04-07T22:11:12.656Z,17.00
2018-04-07T22:13:40.262Z,14.15
2018-04-07T22:16:08.644Z,15.38
2018-04-07T22:18:36.308Z,13.20
2018-04-07T22:21:03.902Z,13.13
2018-04-07T22:23:31.573Z,10.80
2018-04-07T22:25:59.220Z,12.00
2018-04-07T22:28:26.851Z,11.07
2018-04-07T22:30:55.305Z,11.98
2018-04-07T22:33:23.143Z,12.60
2018-04-07T22:35:50.800Z,14.90
2018-04-07T22:38:18.428Z,16.75
2018-04-07T22:40:46.098Z,11.90
2018-04-07T22:43:13.696Z,12.68
2018-04-07T22:45:41.303Z,14.18
2018-04-07T22:48:08.969Z,14.02
2018-04-07T22:50:37.648Z,10.23
2018-04-07T22:53:06.069Z,11.40
2018-04-07T22:55:33.678Z,10.13
2018-04-07T22:58:01.369Z,12.23
2018-04-07T23:00:29.023Z,9.95
2018-04-07T23:02:57.455Z,10.05
2018-04-07T23:05:25.064Z,11.05
2018-04-07T23:07:53.456Z,14.75
2018-04-07T23:10:21.055Z,14.35
2018-04-07T23:12:48.683Z,12.63
2018-04-07T23:15:16.286Z,12.15
2018-04-07T23:17:44.035Z,10.27
2018-04-07T23:20:11.828Z,11.40
2018-04-07T23:22:39.444Z,13.43
2018-04-07T23:25:07.157Z,11.80
2018-04-07T23:27:34.768Z,13.05
2018-04-07T23:30:02.432Z,11.82
2018-04-07T23:32:30.093Z,12.57
2018-04-07T23:34:57.724Z,11.20
2018-04-07T23:37:25.278Z,11.80
2018-04-07T23:39:52.871Z,11.40
2018-04-07T23:42:20.632Z,12.48
2018-04-07T23:44:48.297Z,12.13
2018-04-07T23:47:15.958Z,10.75
2018-04-07T23:49:43.543Z,9.40
2018-04-07T23:52:11.954Z,11.75
2018-04-07T23:54:40.514Z,11.77
2018-04-07T23:57:09.012Z,11.68
2018-04-07T23:59:36.642Z,10.98
